Time,TemperatureF,DewpointF,PressureIn,WindDirection,WindDirectionDegrees,WindSpeedMPH,WindSpeedGustMPH,Humidity,HourlyPrecipIn,Conditions,Clouds,dailyrainin,SoftwareType,DateUTC
2013-05-31 00:01:00,82.9,81.7,29.82,North,-999,0.0,0.0,96,0.00,,,-99.99,FreeWX 2.03,2013-05-31 05:01:00,
2013-05-31 00:06:00,83.1,81.9,29.82,North,-999,0.0,0.0,96,0.00,,,-99.99,FreeWX 2.03,2013-05-31 05:06:00,
2013-05-31 00:11:00,83.1,81.9,29.82,North,-999,0.0,0.0,96,0.00,,,-99.99,FreeWX 2.03,2013-05-31 05:11:00,
2013-05-31 00:16:00,83.1,81.9,29.82,North,-999,0.0,0.0,96,0.00,,,-99.99,FreeWX 2.03,2013-05-31 05:16:00,
2013-05-31 00:21:00,82.9,81.7,29.82,North,-999,0.0,0.0,96,0.00,,,-99.99,FreeWX 2.03,2013-05-31 05:21:00,
2013-05-31 00:26:00,83.1,81.9,29.82,North,-999,0.0,0.0,96,0.00,,,-99.99,FreeWX 2.03,2013-05-31 05:26:00,
2013-05-31 00:31:00,83.1,81.9,29.82,North,-999,0.0,0.0,96,0.00,,,-99.99,FreeWX 2.03,2013-05-31 05:31:00,
2013-05-31 00:36:00,82.9,81.7,29.82,North,-999,0.0,0.0,96,0.00,,,-99.99,FreeWX 2.03,2013-05-31 05:36:00,
2013-05-31 00:41:00,82.9,81.7,29.82,North,-999,0.0,0.0,96,0.00,,,-99.99,FreeWX 2.03,2013-05-31 05:41:00,
2013-05-31 00:46:00,82.9,81.7,29.82,North,-999,0.0,0.0,96,0.00,,,-99.99,FreeWX 2.03,2013-05-31 05:46:00,
2013-05-31 00:51:00,82.9,81.7,29.82,North,-999,0.0,0.0,96,0.00,,,-99.99,FreeWX 2.03,2013-05-31 05:51:00,
2013-05-31 00:56:00,83.1,81.9,29.82,North,-999,0.0,0.0,96,0.00,,,-99.99,FreeWX 2.03,2013-05-31 05:56:00,
2013-05-31 01:01:00,83.1,81.9,29.82,North,-999,0.0,0.0,96,0.00,,,-99.99,FreeWX 2.03,2013-05-31 06:01:00,
2013-05-31 01:06:00,82.9,81.7,29.82,North,-999,0.0,0.0,96,0.00,,,-99.99,FreeWX 2.03,2013-05-31 06:06:00,
2013-05-31 01:11:00,82.9,81.7,29.79,North,-999,0.0,0.0,96,0.00,,,-99.99,FreeWX 2.03,2013-05-31 06:11:00,
2013-05-31 01:16:00,82.9,81.7,29.79,North,-999,0.0,0.0,96,0.00,,,-99.99,FreeWX 2.03,2013-05-31 06:16:00,
2013-05-31 01:21:00,82.8,81.5,29.79,North,-999,0.0,0.0,96,0.00,,,-99.99,FreeWX 2.03,2013-05-31 06:21:00,
2013-05-31 01:26:00,82.9,81.7,29.82,North,-999,0.0,0.0,96,0.00,,,-99.99,FreeWX 2.03,2013-05-31 06:26:00,
2013-05-31 01:31:00,82.9,81.7,29.82,North,-999,0.0,0.0,96,0.00,,,-99.99,FreeWX 2.03,2013-05-31 06:31:00,
2013-05-31 01:36:00,82.9,81.7,29.82,North,-999,0.0,0.0,96,0.00,,,-99.99,FreeWX 2.03,2013-05-31 06:36:00,
2013-05-31 01:41:00,82.9,81.7,29.79,North,-999,0.0,0.0,96,0.00,,,-99.99,FreeWX 2.03,2013-05-31 06:41:00,
2013-05-31 01:46:00,82.9,81.7,29.79,North,-999,0.0,0.0,96,0.00,,,-99.99,FreeWX 2.03,2013-05-31 06:46:00,
2013-05-31 01:51:00,82.8,81.5,29.79,North,-999,0.0,0.0,96,0.00,,,-99.99,FreeWX 2.03,2013-05-31 06:51:00,
2013-05-31 01:56:00,82.8,81.5,29.79,North,-999,0.0,0.0,96,0.00,,,-99.99,FreeWX 2.03,2013-05-31 06:56:00,
2013-05-31 02:01:00,82.8,81.5,29.79,North,-999,0.0,0.0,96,0.00,,,-99.99,FreeWX 2.03,2013-05-31 07:01:00,
2013-05-31 02:06:00,82.9,82.0,29.79,North,-999,0.0,0.0,97,0.00,,,-99.99,FreeWX 2.03,2013-05-31 07:06:00,
2013-05-31 02:11:00,82.9,82.0,29.79,North,-999,0.0,0.0,97,0.00,,,-99.99,FreeWX 2.03,2013-05-31 07:11:00,
2013-05-31 02:16:00,82.8,81.5,29.79,North,-999,0.0,0.0,96,0.00,,,-99.99,FreeWX 2.03,2013-05-31 07:16:00,
2013-05-31 02:21:00,82.8,81.5,29.79,North,-999,0.0,0.0,96,0.00,,,-99.99,FreeWX 2.03,2013-05-31 07:21:00,
2013-05-31 02:26:00,82.8,81.9,29.79,North,-999,0.0,0.0,97,0.00,,,-99.99,FreeWX 2.03,2013-05-31 07:26:00,
2013-05-31 02:31:00,82.8,81.9,29.79,North,-999,0.0,0.0,97,0.00,,,-99.99,FreeWX 2.03,2013-05-31 07:31:00,
2013-05-31 02:36:00,82.8,81.9,29.79,North,-999,0.0,0.0,97,0.00,,,-99.99,FreeWX 2.03,2013-05-31 07:36:00,
2013-05-31 02:41:00,82.6,81.7,29.79,North,-999,0.0,0.0,97,0.00,,,-99.99,FreeWX 2.03,2013-05-31 07:41:00,
2013-05-31 02:46:00,82.6,81.7,29.79,North,-999,0.0,0.0,97,0.00,,,-99.99,FreeWX 2.03,2013-05-31 07:46:00,
2013-05-31 02:51:00,82.6,81.7,29.79,North,-999,0.0,0.0,97,0.00,,,-99.99,FreeWX 2.03,2013-05-31 07:51:00,
2013-05-31 02:56:00,82.6,81.7,29.79,North,-999,0.0,0.0,97,0.00,,,-99.99,FreeWX 2.03,2013-05-31 07:56:00,
2013-05-31 03:01:00,82.8,81.9,29.79,North,-999,0.0,0.0,97,0.00,,,-99.99,FreeWX 2.03,2013-05-31 08:01:00,
2013-05-31 03:06:00,82.6,81.7,29.79,North,-999,0.0,0.0,97,0.00,,,-99.99,FreeWX 2.03,2013-05-31 08:06:00,
2013-05-31 03:11:00,82.6,81.7,29.79,North,-999,0.0,0.0,97,0.00,,,-99.99,FreeWX 2.03,2013-05-31 08:11:00,
2013-05-31 03:16:00,82.6,81.7,29.79,North,-999,0.0,0.0,97,0.00,,,-99.99,FreeWX 2.03,2013-05-31 08:16:00,
2013-05-31 03:21:00,82.4,81.5,29.79,North,-999,0.0,0.0,97,0.00,,,-99.99,FreeWX 2.03,2013-05-31 08:21:00,
2013-05-31 03:26:00,82.6,81.7,29.79,North,-999,0.0,0.0,97,0.00,,,-99.99,FreeWX 2.03,2013-05-31 08:26:00,
2013-05-31 03:31:00,82.6,81.7,29.79,North,-999,0.0,0.0,97,0.00,,,-99.99,FreeWX 2.03,2013-05-31 08:31:00,
2013-05-31 03:36:00,82.6,81.7,29.79,North,-999,0.0,0.0,97,0.00,,,-99.99,FreeWX 2.03,2013-05-31 08:36:00,
2013-05-31 03:41:00,82.6,81.7,29.79,North,-999,0.0,0.0,97,0.00,,,-99.99,FreeWX 2.03,2013-05-31 08:41:00,
2013-05-31 03:46:00,82.6,81.7,29.79,North,-999,0.0,0.0,97,0.00,,,-99.99,FreeWX 2.03,2013-05-31 08:46:00,
2013-05-31 03:51:00,82.4,81.5,29.79,North,-999,0.0,0.0,97,0.00,,,-99.99,FreeWX 2.03,2013-05-31 08:51:00,
2013-05-31 03:56:00,82.4,81.5,29.79,North,-999,0.0,0.0,97,0.00,,,-99.99,FreeWX 2.03,2013-05-31 08:56:00,
2013-05-31 04:01:00,82.6,81.7,29.79,North,-999,0.0,0.0,97,0.00,,,-99.99,FreeWX 2.03,2013-05-31 09:01:00,
2013-05-31 04:06:00,82.8,81.9,29.79,North,-999,0.0,0.0,97,0.00,,,-99.99,FreeWX 2.03,2013-05-31 09:06:00,
2013-05-31 04:11:00,82.8,81.9,29.79,North,-999,0.0,0.0,97,0.00,,,-99.99,FreeWX 2.03,2013-05-31 09:11:00,
2013-05-31 04:16:00,82.6,81.7,29.79,North,-999,0.0,0.0,97,0.00,,,-99.99,FreeWX 2.03,2013-05-31 09:16:00,
2013-05-31 04:21:00,82.6,81.7,29.79,North,-999,0.0,0.0,97,0.00,,,-99.99,FreeWX 2.03,2013-05-31 09:21:00,
2013-05-31 04:27:00,82.6,81.7,29.79,North,-999,0.0,0.0,97,0.00,,,-99.99,FreeWX 2.03,2013-05-31 09:27:00,
2013-05-31 04:32:00,82.8,81.9,29.79,North,-999,0.0,0.0,97,0.00,,,-99.99,FreeWX 2.03,2013-05-31 09:32:00,
2013-05-31 04:37:00,82.6,81.7,29.79,North,-999,0.0,0.0,97,0.00,,,-99.99,FreeWX 2.03,2013-05-31 09:37:00,
2013-05-31 04:42:00,82.6,81.3,29.79,North,-999,0.0,0.0,96,0.00,,,-99.99,FreeWX 2.03,2013-05-31 09:42:00,
2013-05-31 04:47:00,82.6,81.7,29.79,North,-999,0.0,0.0,97,0.00,,,-99.99,FreeWX 2.03,2013-05-31 09:47:00,
2013-05-31 04:52:00,82.6,81.7,29.79,North,-999,0.0,0.0,97,0.00,,,-99.99,FreeWX 2.03,2013-05-31 09:52:00,
2013-05-31 04:57:00,82.8,81.9,29.79,North,-999,0.0,0.0,97,0.00,,,-99.99,FreeWX 2.03,2013-05-31 09:57:00,
2013-05-31 05:02:00,82.9,82.0,29.79,North,-999,0.0,0.0,97,0.00,,,-99.99,FreeWX 2.03,2013-05-31 10:02:00,
2013-05-31 05:07:00,82.9,82.0,29.79,North,-999,0.0,0.0,97,0.00,,,-99.99,FreeWX 2.03,2013-05-31 10:07:00,
2013-05-31 05:12:00,82.8,81.9,29.79,North,-999,0.0,0.0,97,0.00,,,-99.99,FreeWX 2.03,2013-05-31 10:12:00,
2013-05-31 05:17:00,82.8,81.5,29.79,North,-999,0.0,0.0,96,0.00,,,-99.99,FreeWX 2.03,2013-05-31 10:17:00,
2013-05-31 05:22:00,82.6,81.3,29.79,North,-999,0.0,0.0,96,0.00,,,-99.99,FreeWX 2.03,2013-05-31 10:22:00,
2013-05-31 05:27:00,82.6,81.3,29.79,North,-999,0.0,0.0,96,0.00,,,-99.99,FreeWX 2.03,2013-05-31 10:27:00,
2013-05-31 05:32:00,82.8,81.9,29.79,North,-999,0.0,0.0,97,0.00,,,-99.99,FreeWX 2.03,2013-05-31 10:32:00,
2013-05-31 05:37:00,82.8,81.5,29.79,North,-999,0.0,0.0,96,0.00,,,-99.99,FreeWX 2.03,2013-05-31 10:37:00,
2013-05-31 05:42:00,82.8,81.5,29.79,North,-999,0.0,0.0,96,0.00,,,-99.99,FreeWX 2.03,2013-05-31 10:42:00,
2013-05-31 05:47:00,82.8,81.5,29.79,North,-999,0.0,0.0,96,0.00,,,-99.99,FreeWX 2.03,2013-05-31 10:47:00,
2013-05-31 05:52:00,82.8,81.5,29.79,North,-999,0.0,0.0,96,0.00,,,-99.99,FreeWX 2.03,2013-05-31 10:52:00,
2013-05-31 05:57:00,82.6,81.3,29.79,North,-999,0.0,0.0,96,0.00,,,-99.99,FreeWX 2.03,2013-05-31 10:57:00,
2013-05-31 06:02:00,82.8,81.5,29.79,North,-999,0.0,0.0,96,0.00,,,-99.99,FreeWX 2.03,2013-05-31 11:02:00,
2013-05-31 06:07:00,82.8,81.5,29.79,North,-999,0.0,0.0,96,0.00,,,-99.99,FreeWX 2.03,2013-05-31 11:07:00,
2013-05-31 06:12:00,82.8,81.5,29.79,North,-999,0.0,0.0,96,0.00,,,-99.99,FreeWX 2.03,2013-05-31 11:12:00,
2013-05-31 06:17:00,82.6,81.3,29.79,North,-999,0.0,0.0,96,0.00,,,-99.99,FreeWX 2.03,2013-05-31 11:17:00,
2013-05-31 06:22:00,82.6,81.3,29.79,North,-999,0.0,0.0,96,0.00,,,-99.99,FreeWX 2.03,2013-05-31 11:22:00,
2013-05-31 06:27:00,82.9,82.0,29.79,North,-999,0.0,0.0,97,0.00,,,-99.99,FreeWX 2.03,2013-05-31 11:27:00,
2013-05-31 06:32:00,82.9,82.0,29.79,North,-999,0.0,0.0,97,0.00,,,-99.99,FreeWX 2.03,2013-05-31 11:32:00,
2013-05-31 06:37:00,82.9,82.0,29.79,North,-999,0.0,0.0,97,0.00,,,-99.99,FreeWX 2.03,2013-05-31 11:37:00,
2013-05-31 06:42:00,82.9,81.7,29.82,North,-999,0.0,0.0,96,0.00,,,-99.99,FreeWX 2.03,2013-05-31 11:42:00,
2013-05-31 06:47:00,82.9,81.7,29.82,North,-999,0.0,0.0,96,0.00,,,-99.99,FreeWX 2.03,2013-05-31 11:47:00,
2013-05-31 06:52:00,82.8,81.5,29.82,North,-999,0.0,0.0,96,0.00,,,-99.99,FreeWX 2.03,2013-05-31 11:52:00,
2013-05-31 06:57:00,82.8,81.5,29.82,North,-999,0.0,0.0,96,0.00,,,-99.99,FreeWX 2.03,2013-05-31 11:57:00,
2013-05-31 07:02:00,82.8,81.5,29.82,North,-999,0.0,0.0,96,0.00,,,-99.99,FreeWX 2.03,2013-05-31 12:02:00,
2013-05-31 07:07:00,82.8,81.5,29.82,North,-999,0.0,0.0,96,0.00,,,-99.99,FreeWX 2.03,2013-05-31 12:07:00,
2013-05-31 07:12:00,82.9,81.7,29.82,North,-999,0.0,0.0,96,0.00,,,-99.99,FreeWX 2.03,2013-05-31 12:12:00,
2013-05-31 07:17:00,82.9,81.7,29.82,North,-999,0.0,0.0,96,0.00,,,-99.99,FreeWX 2.03,2013-05-31 12:17:00,
2013-05-31 07:22:00,83.1,81.9,29.82,North,-999,0.0,0.0,96,0.00,,,-99.99,FreeWX 2.03,2013-05-31 12:22:00,
2013-05-31 07:27:00,83.1,81.9,29.82,North,-999,0.0,0.0,96,0.00,,,-99.99,FreeWX 2.03,2013-05-31 12:27:00,
2013-05-31 07:32:00,83.1,81.9,29.82,North,-999,0.0,0.0,96,0.00,,,-99.99,FreeWX 2.03,2013-05-31 12:32:00,
2013-05-31 07:37:00,83.1,81.9,29.82,North,-999,0.0,0.0,96,0.00,,,-99.99,FreeWX 2.03,2013-05-31 12:37:00,
2013-05-31 07:42:00,83.1,81.9,29.82,North,-999,0.0,0.0,96,0.00,,,-99.99,FreeWX 2.03,2013-05-31 12:42:00,
2013-05-31 07:47:00,83.3,82.0,29.82,North,-999,0.0,0.0,96,0.00,,,-99.99,FreeWX 2.03,2013-05-31 12:47:00,
2013-05-31 07:52:00,83.5,82.2,29.82,North,-999,0.0,0.0,96,0.00,,,-99.99,FreeWX 2.03,2013-05-31 12:52:00,
2013-05-31 07:57:00,83.7,82.4,29.82,North,-999,0.0,0.0,96,0.00,,,-99.99,FreeWX 2.03,2013-05-31 12:57:00,
2013-05-31 08:02:00,83.7,82.4,29.82,North,-999,0.0,0.0,96,0.00,,,-99.99,FreeWX 2.03,2013-05-31 13:02:00,
2013-05-31 08:07:00,83.7,82.4,29.82,North,-999,0.0,0.0,96,0.00,,,-99.99,FreeWX 2.03,2013-05-31 13:07:00,
2013-05-31 08:12:00,83.8,82.6,29.82,North,-999,0.0,0.0,96,0.00,,,-99.99,FreeWX 2.03,2013-05-31 13:12:00,
2013-05-31 08:17:00,84.0,82.8,29.82,North,-999,0.0,0.0,96,0.00,,,-99.99,FreeWX 2.03,2013-05-31 13:17:00,
2013-05-31 08:22:00,84.0,82.4,29.82,North,-999,0.0,0.0,95,0.00,,,-99.99,FreeWX 2.03,2013-05-31 13:22:00,
2013-05-31 08:27:00,84.0,82.4,29.85,North,-999,0.0,0.0,95,0.00,,,-99.99,FreeWX 2.03,2013-05-31 13:27:00,
2013-05-31 08:32:00,84.0,82.4,29.85,North,-999,0.0,0.0,95,0.00,,,-99.99,FreeWX 2.03,2013-05-31 13:32:00,
2013-05-31 08:37:00,84.2,82.6,29.85,North,-999,0.0,0.0,95,0.00,,,-99.99,FreeWX 2.03,2013-05-31 13:37:00,
2013-05-31 08:42:00,84.6,82.9,29.85,North,-999,0.0,0.0,95,0.00,,,-99.99,FreeWX 2.03,2013-05-31 13:42:00,
2013-05-31 08:47:00,84.7,83.1,29.85,North,-999,0.0,0.0,95,0.00,,,-99.99,FreeWX 2.03,2013-05-31 13:47:00,
2013-05-31 08:52:00,84.7,83.1,29.85,North,-999,0.0,0.0,95,0.00,,,-99.99,FreeWX 2.03,2013-05-31 13:52:00,
2013-05-31 08:57:00,84.6,82.6,29.85,North,-999,0.0,0.0,94,0.00,,,-99.99,FreeWX 2.03,2013-05-31 13:57:00,
2013-05-31 09:02:00,84.6,82.6,29.85,North,-999,0.0,0.0,94,0.00,,,-99.99,FreeWX 2.03,2013-05-31 14:02:00,
2013-05-31 09:07:00,84.9,82.9,29.85,North,-999,0.0,0.0,94,0.00,,,-99.99,FreeWX 2.03,2013-05-31 14:07:00,
2013-05-31 09:12:00,85.3,83.3,29.85,North,-999,0.0,0.0,94,0.00,,,-99.99,FreeWX 2.03,2013-05-31 14:12:00,
2013-05-31 09:17:00,85.5,83.1,29.85,North,-999,0.0,0.0,93,0.00,,,-99.99,FreeWX 2.03,2013-05-31 14:17:00,
2013-05-31 09:22:00,85.5,83.1,29.85,North,-999,0.0,0.0,93,0.00,,,-99.99,FreeWX 2.03,2013-05-31 14:22:00,
2013-05-31 09:27:00,85.5,83.1,29.85,North,-999,0.0,0.0,93,0.00,,,-99.99,FreeWX 2.03,2013-05-31 14:27:00,
2013-05-31 09:32:00,85.6,83.3,29.85,North,-999,0.0,0.0,93,0.00,,,-99.99,FreeWX 2.03,2013-05-31 14:32:00,
2013-05-31 09:37:00,86.0,83.5,29.85,North,-999,0.0,0.0,92,0.00,,,-99.99,FreeWX 2.03,2013-05-31 14:37:00,
2013-05-31 09:42:00,86.2,83.5,29.85,North,-999,0.0,0.0,92,0.00,,,-99.99,FreeWX 2.03,2013-05-31 14:42:00,
2013-05-31 09:47:00,86.2,83.3,29.85,North,-999,0.0,0.0,91,0.00,,,-99.99,FreeWX 2.03,2013-05-31 14:47:00,
2013-05-31 09:52:00,86.2,83.3,29.85,North,-999,0.0,0.0,91,0.00,,,-99.99,FreeWX 2.03,2013-05-31 14:52:00,
2013-05-31 09:57:00,86.4,83.5,29.85,North,-999,0.0,0.0,91,0.00,,,-99.99,FreeWX 2.03,2013-05-31 14:57:00,
2013-05-31 10:02:00,86.4,83.1,29.85,North,-999,0.0,0.0,90,0.00,,,-99.99,FreeWX 2.03,2013-05-31 15:02:00,
2013-05-31 10:07:00,86.2,82.9,29.85,North,-999,0.0,0.0,90,0.00,,,-99.99,FreeWX 2.03,2013-05-31 15:07:00,
2013-05-31 10:12:00,86.0,82.8,29.85,North,-999,0.0,0.0,90,0.00,,,-99.99,FreeWX 2.03,2013-05-31 15:12:00,
2013-05-31 10:17:00,86.2,83.3,29.85,North,-999,0.0,0.0,91,0.00,,,-99.99,FreeWX 2.03,2013-05-31 15:17:00,
2013-05-31 10:22:00,86.4,83.5,29.85,North,-999,0.0,0.0,91,0.00,,,-99.99,FreeWX 2.03,2013-05-31 15:22:00,
2013-05-31 10:27:00,86.7,83.5,29.85,North,-999,0.0,0.0,90,0.00,,,-99.99,FreeWX 2.03,2013-05-31 15:27:00,
2013-05-31 10:32:00,87.1,83.8,29.85,North,-999,0.0,0.0,90,0.00,,,-99.99,FreeWX 2.03,2013-05-31 15:32:00,
2013-05-31 10:37:00,87.3,83.7,29.85,North,-999,0.0,0.0,89,0.00,,,-99.99,FreeWX 2.03,2013-05-31 15:37:00,
2013-05-31 10:42:00,87.8,83.8,29.85,North,-999,0.0,0.0,88,0.00,,,-99.99,FreeWX 2.03,2013-05-31 15:42:00,
2013-05-31 10:47:00,88.3,84.4,29.85,North,-999,0.0,0.0,88,0.00,,,-99.99,FreeWX 2.03,2013-05-31 15:47:00,
2013-05-31 10:52:00,88.7,84.4,29.85,North,-999,0.0,0.0,87,0.00,,,-99.99,FreeWX 2.03,2013-05-31 15:52:00,
2013-05-31 10:57:00,89.1,84.4,29.85,North,-999,0.0,0.0,86,0.00,,,-99.99,FreeWX 2.03,2013-05-31 15:57:00,
2013-05-31 11:02:00,89.6,84.9,29.85,North,-999,0.0,0.0,86,0.00,,,-99.99,FreeWX 2.03,2013-05-31 16:02:00,
2013-05-31 11:07:00,90.0,84.7,29.85,North,-999,0.0,0.0,85,0.00,,,-99.99,FreeWX 2.03,2013-05-31 16:07:00,
2013-05-31 11:12:00,90.3,84.7,29.85,North,-999,0.0,0.0,84,0.00,,,-99.99,FreeWX 2.03,2013-05-31 16:12:00,
2013-05-31 11:17:00,90.7,84.7,29.85,North,-999,0.0,0.0,83,0.00,,,-99.99,FreeWX 2.03,2013-05-31 16:17:00,
2013-05-31 11:22:00,91.0,84.7,29.85,North,-999,0.0,0.0,82,0.00,,,-99.99,FreeWX 2.03,2013-05-31 16:22:00,
2013-05-31 11:27:00,91.2,84.6,29.85,North,-999,0.0,0.0,81,0.00,,,-99.99,FreeWX 2.03,2013-05-31 16:27:00,
2013-05-31 11:32:00,91.4,84.4,29.85,North,-999,0.0,0.0,80,0.00,,,-99.99,FreeWX 2.03,2013-05-31 16:32:00,
2013-05-31 11:37:00,91.8,84.7,29.85,North,-999,0.0,0.0,80,0.00,,,-99.99,FreeWX 2.03,2013-05-31 16:37:00,
2013-05-31 11:42:00,92.1,84.2,29.85,North,-999,0.0,0.0,78,0.00,,,-99.99,FreeWX 2.03,2013-05-31 16:42:00,
2013-05-31 11:47:00,92.3,84.0,29.85,North,-999,0.0,0.0,77,0.00,,,-99.99,FreeWX 2.03,2013-05-31 16:47:00,
2013-05-31 11:52:00,92.3,83.7,29.85,North,-999,0.0,0.0,76,0.00,,,-99.99,FreeWX 2.03,2013-05-31 16:52:00,
2013-05-31 11:57:00,92.1,83.5,29.85,North,-999,0.0,0.0,76,0.00,,,-99.99,FreeWX 2.03,2013-05-31 16:57:00,
2013-05-31 12:02:00,91.8,83.1,29.85,North,-999,0.0,0.0,76,0.00,,,-99.99,FreeWX 2.03,2013-05-31 17:02:00,
2013-05-31 12:07:00,91.6,82.9,29.85,North,-999,0.0,0.0,76,0.00,,,-99.99,FreeWX 2.03,2013-05-31 17:07:00,
2013-05-31 12:12:00,91.6,83.3,29.85,North,-999,0.0,0.0,77,0.00,,,-99.99,FreeWX 2.03,2013-05-31 17:12:00,
2013-05-31 12:17:00,91.8,83.5,29.85,North,-999,0.0,0.0,77,0.00,,,-99.99,FreeWX 2.03,2013-05-31 17:17:00,
2013-05-31 12:22:00,91.8,83.1,29.85,North,-999,0.0,0.0,76,0.00,,,-99.99,FreeWX 2.03,2013-05-31 17:22:00,
2013-05-31 12:27:00,91.4,82.8,29.85,North,-999,0.0,0.0,76,0.00,,,-99.99,FreeWX 2.03,2013-05-31 17:27:00,
2013-05-31 12:32:00,91.2,82.6,29.85,North,-999,0.0,0.0,76,0.00,,,-99.99,FreeWX 2.03,2013-05-31 17:32:00,
2013-05-31 12:37:00,91.6,83.3,29.85,North,-999,0.0,0.0,77,0.00,,,-99.99,FreeWX 2.03,2013-05-31 17:37:00,
2013-05-31 12:42:00,91.8,83.5,29.85,North,-999,0.0,0.0,77,0.00,,,-99.99,FreeWX 2.03,2013-05-31 17:42:00,
2013-05-31 12:47:00,91.6,82.9,29.85,North,-999,0.0,0.0,76,0.00,,,-99.99,FreeWX 2.03,2013-05-31 17:47:00,
2013-05-31 12:52:00,91.6,82.9,29.85,North,-999,0.0,0.0,76,0.00,,,-99.99,FreeWX 2.03,2013-05-31 17:52:00,
2013-05-31 12:57:00,91.8,83.1,29.85,North,-999,0.0,0.0,76,0.00,,,-99.99,FreeWX 2.03,2013-05-31 17:57:00,
2013-05-31 13:02:00,91.9,83.3,29.85,North,-999,0.0,0.0,76,0.00,,,-99.99,FreeWX 2.03,2013-05-31 18:02:00,
2013-05-31 13:07:00,91.9,82.8,29.85,North,-999,0.0,0.0,75,0.00,,,-99.99,FreeWX 2.03,2013-05-31 18:07:00,
2013-05-31 13:12:00,91.9,83.3,29.82,North,-999,0.0,0.0,76,0.00,,,-99.99,FreeWX 2.03,2013-05-31 18:12:00,
2013-05-31 13:17:00,91.8,83.1,29.82,North,-999,0.0,0.0,76,0.00,,,-99.99,FreeWX 2.03,2013-05-31 18:17:00,
2013-05-31 13:22:00,91.8,83.1,29.82,North,-999,0.0,0.0,76,0.00,,,-99.99,FreeWX 2.03,2013-05-31 18:22:00,
2013-05-31 13:27:00,91.9,83.3,29.85,North,-999,0.0,0.0,76,0.00,,,-99.99,FreeWX 2.03,2013-05-31 18:27:00,
2013-05-31 13:32:00,91.8,83.1,29.85,North,-999,0.0,0.0,76,0.00,,,-99.99,FreeWX 2.03,2013-05-31 18:32:00,
2013-05-31 13:37:00,91.9,83.3,29.85,North,-999,0.0,0.0,76,0.00,,,-99.99,FreeWX 2.03,2013-05-31 18:37:00,
2013-05-31 13:42:00,91.8,82.8,29.82,North,-999,0.0,0.0,75,0.00,,,-99.99,FreeWX 2.03,2013-05-31 18:42:00,
2013-05-31 13:47:00,91.8,83.1,29.82,North,-999,0.0,0.0,76,0.00,,,-99.99,FreeWX 2.03,2013-05-31 18:47:00,
2013-05-31 13:52:00,91.8,83.1,29.82,North,-999,0.0,0.0,76,0.00,,,-99.99,FreeWX 2.03,2013-05-31 18:52:00,
2013-05-31 13:57:00,91.8,83.1,29.82,North,-999,0.0,0.0,76,0.00,,,-99.99,FreeWX 2.03,2013-05-31 18:57:00,
2013-05-31 14:02:00,91.6,82.9,29.82,North,-999,0.0,0.0,76,0.00,,,-99.99,FreeWX 2.03,2013-05-31 19:02:00,
2013-05-31 14:07:00,91.6,82.9,29.82,North,-999,0.0,0.0,76,0.00,,,-99.99,FreeWX 2.03,2013-05-31 19:07:00,
2013-05-31 14:12:00,91.4,82.8,29.82,North,-999,0.0,0.0,76,0.00,,,-99.99,FreeWX 2.03,2013-05-31 19:12:00,
2013-05-31 14:17:00,91.2,82.6,29.82,North,-999,0.0,0.0,76,0.00,,,-99.99,FreeWX 2.03,2013-05-31 19:17:00,
2013-05-31 14:22:00,90.9,82.2,29.82,North,-999,0.0,0.0,76,0.00,,,-99.99,FreeWX 2.03,2013-05-31 19:22:00,
2013-05-31 14:27:00,90.9,82.6,29.82,North,-999,0.0,0.0,77,0.00,,,-99.99,FreeWX 2.03,2013-05-31 19:27:00,
2013-05-31 14:32:00,90.9,82.6,29.82,North,-999,0.0,0.0,77,0.00,,,-99.99,FreeWX 2.03,2013-05-31 19:32:00,
2013-05-31 14:37:00,90.7,82.4,29.82,North,-999,0.0,0.0,77,0.00,,,-99.99,FreeWX 2.03,2013-05-31 19:37:00,
2013-05-31 14:42:00,90.3,82.0,29.82,North,-999,0.0,0.0,77,0.00,,,-99.99,FreeWX 2.03,2013-05-31 19:42:00,
2013-05-31 14:47:00,90.3,82.0,29.82,North,-999,0.0,0.0,77,0.00,,,-99.99,FreeWX 2.03,2013-05-31 19:47:00,
2013-05-31 14:52:00,90.5,82.2,29.82,North,-999,0.0,0.0,77,0.00,,,-99.99,FreeWX 2.03,2013-05-31 19:52:00,
2013-05-31 14:57:00,90.7,82.4,29.82,North,-999,0.0,0.0,77,0.00,,,-99.99,FreeWX 2.03,2013-05-31 19:57:00,
2013-05-31 15:02:00,90.5,82.2,29.82,North,-999,0.0,0.0,77,0.00,,,-99.99,FreeWX 2.03,2013-05-31 20:02:00,
2013-05-31 15:07:00,90.3,82.0,29.82,North,-999,0.0,0.0,77,0.00,,,-99.99,FreeWX 2.03,2013-05-31 20:07:00,
2013-05-31 15:12:00,90.3,82.0,29.79,North,-999,0.0,0.0,77,0.00,,,-99.99,FreeWX 2.03,2013-05-31 20:12:00,
2013-05-31 15:17:00,90.5,82.2,29.79,North,-999,0.0,0.0,77,0.00,,,-99.99,FreeWX 2.03,2013-05-31 20:17:00,
2013-05-31 15:22:00,90.7,82.4,29.79,North,-999,0.0,0.0,77,0.00,,,-99.99,FreeWX 2.03,2013-05-31 20:22:00,
2013-05-31 15:27:00,90.5,82.2,29.79,North,-999,0.0,0.0,77,0.00,,,-99.99,FreeWX 2.03,2013-05-31 20:27:00,
2013-05-31 15:32:00,90.7,82.4,29.79,North,-999,0.0,0.0,77,0.00,,,-99.99,FreeWX 2.03,2013-05-31 20:32:00,
2013-05-31 15:37:00,90.5,82.2,29.79,North,-999,0.0,0.0,77,0.00,,,-99.99,FreeWX 2.03,2013-05-31 20:37:00,
2013-05-31 15:42:00,90.7,82.4,29.79,North,-999,0.0,0.0,77,0.00,,,-99.99,FreeWX 2.03,2013-05-31 20:42:00,
2013-05-31 15:47:00,90.5,82.2,29.79,North,-999,0.0,0.0,77,0.00,,,-99.99,FreeWX 2.03,2013-05-31 20:47:00,
2013-05-31 15:52:00,90.7,82.0,29.79,North,-999,0.0,0.0,76,0.00,,,-99.99,FreeWX 2.03,2013-05-31 20:52:00,
2013-05-31 15:57:00,90.5,81.9,29.79,North,-999,0.0,0.0,76,0.00,,,-99.99,FreeWX 2.03,2013-05-31 20:57:00,
2013-05-31 16:02:00,90.3,81.7,29.79,North,-999,0.0,0.0,76,0.00,,,-99.99,FreeWX 2.03,2013-05-31 21:02:00,
2013-05-31 16:07:00,90.3,81.7,29.79,North,-999,0.0,0.0,76,0.00,,,-99.99,FreeWX 2.03,2013-05-31 21:07:00,
2013-05-31 16:12:00,90.3,82.0,29.79,North,-999,0.0,0.0,77,0.00,,,-99.99,FreeWX 2.03,2013-05-31 21:12:00,
2013-05-31 16:17:00,90.5,82.2,29.79,North,-999,0.0,0.0,77,0.00,,,-99.99,FreeWX 2.03,2013-05-31 21:17:00,
2013-05-31 16:22:00,90.1,81.9,29.79,North,-999,0.0,0.0,77,0.00,,,-99.99,FreeWX 2.03,2013-05-31 21:22:00,
2013-05-31 16:27:00,90.0,82.2,29.79,North,-999,0.0,0.0,78,0.00,,,-99.99,FreeWX 2.03,2013-05-31 21:27:00,
2013-05-31 16:32:00,90.0,82.2,29.79,North,-999,0.0,0.0,78,0.00,,,-99.99,FreeWX 2.03,2013-05-31 21:32:00,
2013-05-31 16:37:00,90.0,82.2,29.79,North,-999,0.0,0.0,78,0.00,,,-99.99,FreeWX 2.03,2013-05-31 21:37:00,
2013-05-31 16:42:00,90.0,82.2,29.76,North,-999,0.0,0.0,78,0.00,,,-99.99,FreeWX 2.03,2013-05-31 21:42:00,
2013-05-31 16:48:00,90.0,82.2,29.76,North,-999,0.0,0.0,78,0.00,,,-99.99,FreeWX 2.03,2013-05-31 21:48:00,
2013-05-31 16:53:00,90.0,82.6,29.76,North,-999,0.0,0.0,79,0.00,,,-99.99,FreeWX 2.03,2013-05-31 21:53:00,
2013-05-31 16:58:00,90.1,82.8,29.76,North,-999,0.0,0.0,79,0.00,,,-99.99,FreeWX 2.03,2013-05-31 21:58:00,
2013-05-31 17:03:00,90.1,82.8,29.76,North,-999,0.0,0.0,79,0.00,,,-99.99,FreeWX 2.03,2013-05-31 22:03:00,
2013-05-31 17:08:00,89.8,82.4,29.76,North,-999,0.0,0.0,79,0.00,,,-99.99,FreeWX 2.03,2013-05-31 22:08:00,
2013-05-31 17:13:00,89.6,82.2,29.76,North,-999,0.0,0.0,79,0.00,,,-99.99,FreeWX 2.03,2013-05-31 22:13:00,
2013-05-31 17:18:00,89.8,82.8,29.76,North,-999,0.0,0.0,80,0.00,,,-99.99,FreeWX 2.03,2013-05-31 22:18:00,
2013-05-31 17:23:00,89.6,82.6,29.76,North,-999,0.0,0.0,80,0.00,,,-99.99,FreeWX 2.03,2013-05-31 22:23:00,
2013-05-31 17:28:00,89.4,82.4,29.76,North,-999,0.0,0.0,80,0.00,,,-99.99,FreeWX 2.03,2013-05-31 22:28:00,
2013-05-31 17:33:00,89.2,82.6,29.76,North,-999,0.0,0.0,81,0.00,,,-99.99,FreeWX 2.03,2013-05-31 22:33:00,
2013-05-31 17:38:00,89.2,82.6,29.76,North,-999,0.0,0.0,81,0.00,,,-99.99,FreeWX 2.03,2013-05-31 22:38:00,
2013-05-31 17:43:00,89.2,82.6,29.76,North,-999,0.0,0.0,81,0.00,,,-99.99,FreeWX 2.03,2013-05-31 22:43:00,
2013-05-31 17:48:00,89.1,82.4,29.76,North,-999,0.0,0.0,81,0.00,,,-99.99,FreeWX 2.03,2013-05-31 22:48:00,
2013-05-31 17:53:00,88.9,82.6,29.76,North,-999,0.0,0.0,82,0.00,,,-99.99,FreeWX 2.03,2013-05-31 22:53:00,
2013-05-31 17:58:00,88.9,82.9,29.76,North,-999,0.0,0.0,83,0.00,,,-99.99,FreeWX 2.03,2013-05-31 22:58:00,
2013-05-31 18:03:00,89.1,83.1,29.76,North,-999,0.0,0.0,83,0.00,,,-99.99,FreeWX 2.03,2013-05-31 23:03:00,
2013-05-31 18:08:00,88.7,82.8,29.76,North,-999,0.0,0.0,83,0.00,,,-99.99,FreeWX 2.03,2013-05-31 23:08:00,
2013-05-31 18:13:00,88.7,82.8,29.76,North,-999,0.0,0.0,83,0.00,,,-99.99,FreeWX 2.03,2013-05-31 23:13:00,
2013-05-31 18:18:00,88.7,83.3,29.76,North,-999,0.0,0.0,84,0.00,,,-99.99,FreeWX 2.03,2013-05-31 23:18:00,
2013-05-31 18:23:00,88.5,83.1,29.76,North,-999,0.0,0.0,84,0.00,,,-99.99,FreeWX 2.03,2013-05-31 23:23:00,
2013-05-31 18:28:00,88.2,82.8,29.76,North,-999,0.0,0.0,84,0.00,,,-99.99,FreeWX 2.03,2013-05-31 23:28:00,
2013-05-31 18:33:00,88.2,83.1,29.76,North,-999,0.0,0.0,85,0.00,,,-99.99,FreeWX 2.03,2013-05-31 23:33:00,
2013-05-31 18:38:00,88.2,83.1,29.76,North,-999,0.0,0.0,85,0.00,,,-99.99,FreeWX 2.03,2013-05-31 23:38:00,
2013-05-31 18:43:00,88.0,82.6,29.76,North,-999,0.0,0.0,84,0.00,,,-99.99,FreeWX 2.03,2013-05-31 23:43:00,
2013-05-31 18:48:00,87.8,82.8,29.76,North,-999,0.0,0.0,85,0.00,,,-99.99,FreeWX 2.03,2013-05-31 23:48:00,
2013-05-31 18:53:00,87.6,82.6,29.76,North,-999,0.0,0.0,85,0.00,,,-99.99,FreeWX 2.03,2013-05-31 23:53:00,
2013-05-31 18:58:00,87.6,82.6,29.76,North,-999,0.0,0.0,85,0.00,,,-99.99,FreeWX 2.03,2013-05-31 23:58:00,
2013-05-31 19:03:00,87.3,82.6,29.76,North,-999,0.0,0.0,86,0.00,,,-99.99,FreeWX 2.03,2013-06-01 00:03:00,
2013-05-31 19:08:00,86.9,82.2,29.76,North,-999,0.0,0.0,86,0.00,,,-99.99,FreeWX 2.03,2013-06-01 00:08:00,
2013-05-31 19:13:00,87.1,82.8,29.76,North,-999,0.0,0.0,87,0.00,,,-99.99,FreeWX 2.03,2013-06-01 00:13:00,
2013-05-31 19:18:00,87.1,82.8,29.76,North,-999,0.0,0.0,87,0.00,,,-99.99,FreeWX 2.03,2013-06-01 00:18:00,
2013-05-31 19:23:00,86.9,82.6,29.76,North,-999,0.0,0.0,87,0.00,,,-99.99,FreeWX 2.03,2013-06-01 00:23:00,
2013-05-31 19:28:00,86.5,82.2,29.76,North,-999,0.0,0.0,87,0.00,,,-99.99,FreeWX 2.03,2013-06-01 00:28:00,
2013-05-31 19:33:00,86.7,82.4,29.76,North,-999,0.0,0.0,87,0.00,,,-99.99,FreeWX 2.03,2013-06-01 00:33:00,
2013-05-31 19:38:00,86.7,82.4,29.76,North,-999,0.0,0.0,87,0.00,,,-99.99,FreeWX 2.03,2013-06-01 00:38:00,
2013-05-31 19:43:00,86.4,82.0,29.76,North,-999,0.0,0.0,87,0.00,,,-99.99,FreeWX 2.03,2013-06-01 00:43:00,
2013-05-31 19:48:00,86.0,82.0,29.76,North,-999,0.0,0.0,88,0.00,,,-99.99,FreeWX 2.03,2013-06-01 00:48:00,
2013-05-31 19:53:00,85.8,81.9,29.76,North,-999,0.0,0.0,88,0.00,,,-99.99,FreeWX 2.03,2013-06-01 00:53:00,
2013-05-31 19:58:00,85.8,82.2,29.79,North,-999,0.0,0.0,89,0.00,,,-99.99,FreeWX 2.03,2013-06-01 00:58:00,
2013-05-31 20:03:00,85.5,81.9,29.79,North,-999,0.0,0.0,89,0.00,,,-99.99,FreeWX 2.03,2013-06-01 01:03:00,
2013-05-31 20:08:00,85.3,81.7,29.79,North,-999,0.0,0.0,89,0.00,,,-99.99,FreeWX 2.03,2013-06-01 01:08:00,
2013-05-31 20:13:00,85.3,82.0,29.79,North,-999,0.0,0.0,90,0.00,,,-99.99,FreeWX 2.03,2013-06-01 01:13:00,
2013-05-31 20:18:00,85.3,82.4,29.79,North,-999,0.0,0.0,91,0.00,,,-99.99,FreeWX 2.03,2013-06-01 01:18:00,
2013-05-31 20:23:00,85.1,82.2,29.79,North,-999,0.0,0.0,91,0.00,,,-99.99,FreeWX 2.03,2013-06-01 01:23:00,
2013-05-31 20:28:00,84.9,82.0,29.79,North,-999,0.0,0.0,91,0.00,,,-99.99,FreeWX 2.03,2013-06-01 01:28:00,
2013-05-31 20:33:00,84.7,82.2,29.79,North,-999,0.0,0.0,92,0.00,,,-99.99,FreeWX 2.03,2013-06-01 01:33:00,
2013-05-31 20:38:00,84.9,82.4,29.79,North,-999,0.0,0.0,92,0.00,,,-99.99,FreeWX 2.03,2013-06-01 01:38:00,
2013-05-31 20:43:00,84.9,82.4,29.79,North,-999,0.0,0.0,92,0.00,,,-99.99,FreeWX 2.03,2013-06-01 01:43:00,
2013-05-31 20:48:00,84.7,82.2,29.79,North,-999,0.0,0.0,92,0.00,,,-99.99,FreeWX 2.03,2013-06-01 01:48:00,
2013-05-31 20:53:00,84.7,82.2,29.79,North,-999,0.0,0.0,92,0.00,,,-99.99,FreeWX 2.03,2013-06-01 01:53:00,
2013-05-31 20:58:00,84.6,82.0,29.79,North,-999,0.0,0.0,92,0.00,,,-99.99,FreeWX 2.03,2013-06-01 01:58:00,
2013-05-31 21:03:00,84.4,82.0,29.79,North,-999,0.0,0.0,93,0.00,,,-99.99,FreeWX 2.03,2013-06-01 02:03:00,
2013-05-31 21:08:00,84.4,82.0,29.79,North,-999,0.0,0.0,93,0.00,,,-99.99,FreeWX 2.03,2013-06-01 02:08:00,
2013-05-31 21:13:00,84.4,82.0,29.79,North,-999,0.0,0.0,93,0.00,,,-99.99,FreeWX 2.03,2013-06-01 02:13:00,
2013-05-31 21:18:00,84.6,82.6,29.79,North,-999,0.0,0.0,94,0.00,,,-99.99,FreeWX 2.03,2013-06-01 02:18:00,
2013-05-31 21:23:00,84.4,82.0,29.79,North,-999,0.0,0.0,93,0.00,,,-99.99,FreeWX 2.03,2013-06-01 02:23:00,
2013-05-31 21:28:00,84.2,81.9,29.79,North,-999,0.0,0.0,93,0.00,,,-99.99,FreeWX 2.03,2013-06-01 02:28:00,
2013-05-31 21:33:00,84.0,82.0,29.79,North,-999,0.0,0.0,94,0.00,,,-99.99,FreeWX 2.03,2013-06-01 02:33:00,
2013-05-31 21:38:00,84.4,82.4,29.79,North,-999,0.0,0.0,94,0.00,,,-99.99,FreeWX 2.03,2013-06-01 02:38:00,
2013-05-31 21:43:00,84.4,82.4,29.79,North,-999,0.0,0.0,94,0.00,,,-99.99,FreeWX 2.03,2013-06-01 02:43:00,
2013-05-31 21:48:00,84.4,82.0,29.79,North,-999,0.0,0.0,93,0.00,,,-99.99,FreeWX 2.03,2013-06-01 02:48:00,
2013-05-31 21:53:00,84.0,81.7,29.79,North,-999,0.0,0.0,93,0.00,,,-99.99,FreeWX 2.03,2013-06-01 02:53:00,
2013-05-31 21:58:00,84.0,82.0,29.79,North,-999,0.0,0.0,94,0.00,,,-99.99,FreeWX 2.03,2013-06-01 02:58:00,
2013-05-31 22:03:00,84.2,82.2,29.79,North,-999,0.0,0.0,94,0.00,,,-99.99,FreeWX 2.03,2013-06-01 03:03:00,
2013-05-31 22:08:00,84.2,82.2,29.79,North,-999,0.0,0.0,94,0.00,,,-99.99,FreeWX 2.03,2013-06-01 03:08:00,
2013-05-31 22:13:00,84.2,82.2,29.79,North,-999,0.0,0.0,94,0.00,,,-99.99,FreeWX 2.03,2013-06-01 03:13:00,
2013-05-31 22:18:00,84.0,82.0,29.79,North,-999,0.0,0.0,94,0.00,,,-99.99,FreeWX 2.03,2013-06-01 03:18:00,
2013-05-31 22:23:00,84.0,82.0,29.79,North,-999,0.0,0.0,94,0.00,,,-99.99,FreeWX 2.03,2013-06-01 03:23:00,
2013-05-31 22:28:00,84.0,82.0,29.79,North,-999,0.0,0.0,94,0.00,,,-99.99,FreeWX 2.03,2013-06-01 03:28:00,
2013-05-31 22:33:00,84.0,82.4,29.79,North,-999,0.0,0.0,95,0.00,,,-99.99,FreeWX 2.03,2013-06-01 03:33:00,
2013-05-31 22:38:00,84.0,82.4,29.79,North,-999,0.0,0.0,95,0.00,,,-99.99,FreeWX 2.03,2013-06-01 03:38:00,
2013-05-31 22:43:00,84.0,82.4,29.79,North,-999,0.0,0.0,95,0.00,,,-99.99,FreeWX 2.03,2013-06-01 03:43:00,
2013-05-31 22:48:00,84.0,82.4,29.79,North,-999,0.0,0.0,95,0.00,,,-99.99,FreeWX 2.03,2013-06-01 03:48:00,
2013-05-31 22:53:00,83.8,82.2,29.79,North,-999,0.0,0.0,95,0.00,,,-99.99,FreeWX 2.03,2013-06-01 03:53:00,
2013-05-31 22:58:00,83.7,82.0,29.79,North,-999,0.0,0.0,95,0.00,,,-99.99,FreeWX 2.03,2013-06-01 03:58:00,
2013-05-31 23:03:00,83.7,82.0,29.79,North,-999,0.0,0.0,95,0.00,,,-99.99,FreeWX 2.03,2013-06-01 04:03:00,
2013-05-31 23:08:00,83.7,82.0,29.79,North,-999,0.0,0.0,95,0.00,,,-99.99,FreeWX 2.03,2013-06-01 04:08:00,
2013-05-31 23:13:00,83.8,82.2,29.79,North,-999,0.0,0.0,95,0.00,,,-99.99,FreeWX 2.03,2013-06-01 04:13:00,
2013-05-31 23:18:00,83.7,82.0,29.79,North,-999,0.0,0.0,95,0.00,,,-99.99,FreeWX 2.03,2013-06-01 04:18:00,
2013-05-31 23:23:00,83.7,82.0,29.79,North,-999,0.0,0.0,95,0.00,,,-99.99,FreeWX 2.03,2013-06-01 04:23:00,
2013-05-31 23:28:00,83.7,82.0,29.79,North,-999,0.0,0.0,95,0.00,,,-99.99,FreeWX 2.03,2013-06-01 04:28:00,
2013-05-31 23:33:00,83.7,82.0,29.79,North,-999,0.0,0.0,95,0.00,,,-99.99,FreeWX 2.03,2013-06-01 04:33:00,
2013-05-31 23:39:00,83.7,82.0,29.79,North,-999,0.0,0.0,95,0.00,,,-99.99,FreeWX 2.03,2013-06-01 04:39:00,
2013-05-31 23:44:00,83.7,82.0,29.79,North,-999,0.0,0.0,95,0.00,,,-99.99,FreeWX 2.03,2013-06-01 04:44:00,
2013-05-31 23:49:00,83.7,82.4,29.79,North,-999,0.0,0.0,96,0.00,,,-99.99,FreeWX 2.03,2013-06-01 04:49:00,
2013-05-31 23:54:00,83.7,82.4,29.79,North,-999,0.0,0.0,96,0.00,,,-99.99,FreeWX 2.03,2013-06-01 04:54:00,
2013-05-31 23:59:00,83.7,82.4,29.79,North,-999,0.0,0.0,96,0.00,,,-99.99,FreeWX 2.03,2013-06-01 04:59:00,